Time;durP1;ratioP1;P1;durP2;ratioP2;P2;SDS_P1;SDS_P2;PMS_P1;PMS_P2;Temp;Humidity;BMP_temperature;BMP_pressure;BME280_temperature;BME280_humidity;BME280_pressure;Samples;Min_cycle;Max_cycle;Signal;HPM_P1;HPM_P2
2023/07/22 00:03:39;;;;;;;3.50;3.20;;;13.10;99.90;;;14.03;100.00;97892.63;10360851;28;20269;-76
2023/07/22 00:08:42;;;;;;;3.40;3.20;;;13.10;99.90;;;13.94;100.00;97900.81;10360908;28;20767;-76
2023/07/22 00:13:45;;;;;;;3.50;3.17;;;13.10;99.90;;;13.96;100.00;97901.72;10352064;28;20223;-76
2023/07/22 00:18:50;;;;;;;4.18;3.70;;;13.00;99.90;;;13.89;100.00;97910.88;10359963;28;20230;-76
2023/07/22 00:23:53;;;;;;;3.65;3.35;;;13.00;99.90;;;13.90;100.00;97910.03;10354579;28;20293;-77
2023/07/22 00:28:56;;;;;;;3.28;3.03;;;13.00;99.90;;;13.97;100.00;97913.78;10356143;28;20237;-76
2023/07/22 00:34:01;;;;;;;3.25;3.00;;;12.90;99.90;;;13.77;100.00;97905.19;10354939;28;20236;-77
2023/07/22 00:39:05;;;;;;;3.45;3.22;;;12.90;99.90;;;13.83;100.00;97910.59;10361992;28;20277;-77
2023/07/22 00:44:08;;;;;;;3.55;3.20;;;12.80;99.90;;;13.76;100.00;97903.41;10362047;28;20274;-77
2023/07/22 00:49:16;;;;;;;3.75;3.25;;;12.70;99.90;;;13.73;100.00;97896.47;10357895;28;20224;-77
2023/07/22 00:54:19;;;;;;;4.03;3.40;;;12.70;99.90;;;13.60;100.00;97896.72;10357299;28;20636;-77
2023/07/22 00:59:22;;;;;;;3.38;3.08;;;12.60;99.90;;;13.59;100.00;97889.81;10358444;28;20230;-77
2023/07/22 01:04:26;;;;;;;3.38;3.08;;;12.70;99.90;;;13.63;100.00;97889.13;10355112;28;20241;-76
2023/07/22 01:09:36;;;;;;;3.70;3.40;;;12.70;99.90;;;13.57;100.00;97885.44;10366983;28;20233;-77
2023/07/22 01:14:42;;;;;;;3.38;3.17;;;12.70;99.90;;;13.48;100.00;97886.75;10355768;28;20238;-76
2023/07/22 01:19:48;;;;;;;3.70;3.40;;;12.60;99.90;;;13.49;100.00;97885.94;10356995;28;20229;-76
2023/07/22 01:24:53;;;;;;;3.58;3.30;;;12.70;99.90;;;13.49;100.00;97878.22;10353456;28;20239;-76
2023/07/22 01:29:56;;;;;;;3.30;3.10;;;12.60;99.90;;;13.43;99.96;97885.66;10349638;28;20230;-77
2023/07/22 01:34:59;;;;;;;3.47;3.17;;;12.50;99.90;;;13.23;100.00;97891.53;10353057;28;20261;-76
2023/07/22 01:40:11;;;;;;;4.05;3.75;;;12.30;99.90;;;13.12;100.00;97882.44;10358770;28;20234;-76
2023/07/22 01:45:15;;;;;;;3.70;3.40;;;12.20;99.90;;;12.89;100.00;97881.34;10354990;28;20257;-77
2023/07/22 01:50:18;;;;;;;3.58;3.35;;;12.00;99.90;;;12.86;100.00;97882.06;10351212;28;20773;-77
2023/07/22 01:55:23;;;;;;;4.25;3.90;;;12.00;99.90;;;12.89;100.00;97873.66;10351191;28;20241;-76
2023/07/22 02:00:26;;;;;;;5.53;4.05;;;12.10;99.90;;;12.99;100.00;97873.25;10357475;28;20723;-76
2023/07/22 02:05:30;;;;;;;3.72;3.47;;;12.20;99.90;;;13.01;100.00;97879.34;10354544;28;20230;-77
2023/07/22 02:10:35;;;;;;;3.70;3.40;;;12.20;99.90;;;12.93;100.00;97878.97;10365945;28;20226;-76
2023/07/22 02:15:38;;;;;;;3.55;3.30;;;12.10;99.90;;;12.99;100.00;97869.03;10361145;28;20281;-76
2023/07/22 02:20:44;;;;;;;3.53;3.28;;;12.20;99.90;;;13.01;100.00;97882.78;10362139;28;20224;-77
2023/07/22 02:25:51;;;;;;;3.97;3.60;;;12.10;99.90;;;12.94;100.00;97885.00;10365106;28;20244;-77
2023/07/22 02:30:55;;;;;;;3.28;3.00;;;12.10;99.90;;;12.98;100.00;97881.78;10359656;28;20307;-77
2023/07/22 02:35:58;;;;;;;3.40;3.10;;;12.00;99.90;;;12.92;100.00;97876.34;10363175;28;20642;-77
2023/07/22 02:41:07;;;;;;;3.60;3.30;;;12.00;99.90;;;12.66;100.00;97882.78;10367712;28;20283;-76
2023/07/22 02:46:11;;;;;;;3.90;3.60;;;11.80;99.90;;;12.62;100.00;97882.63;10363142;28;20235;-77
2023/07/22 02:51:14;;;;;;;4.95;3.75;;;11.80;99.90;;;12.49;100.00;97889.63;10364200;28;20227;-76
2023/07/22 02:56:18;;;;;;;4.03;3.63;;;11.70;99.90;;;12.30;100.00;97890.38;10360898;28;20313;-76
2023/07/22 03:01:21;;;;;;;3.55;3.28;;;11.50;99.90;;;12.44;100.00;97893.66;10362780;28;20233;-77
2023/07/22 03:06:26;;;;;;;3.50;3.20;;;11.70;99.90;;;12.56;100.00;97890.03;10363492;28;20227;-77
2023/07/22 03:11:31;;;;;;;3.70;3.40;;;11.80;99.90;;;12.59;100.00;97895.31;10363170;28;20223;-76
2023/07/22 03:16:34;;;;;;;3.55;3.25;;;11.80;99.90;;;12.68;100.00;97889.75;10358203;28;20727;-76
2023/07/22 03:21:37;;;;;;;4.63;3.47;;;11.90;99.90;;;12.63;100.00;97889.50;10361345;28;20234;-77
2023/07/22 03:26:42;;;;;;;3.40;3.10;;;11.80;99.90;;;12.70;99.57;97887.25;10351821;28;20241;-76
2023/07/22 03:31:45;;;;;;;3.75;3.45;;;11.70;99.90;;;12.55;100.00;97887.38;10358481;28;20233;-76
2023/07/22 03:36:48;;;;;;;4.10;3.78;;;11.60;99.90;;;12.38;100.00;97881.41;10364462;28;20230;-77
2023/07/22 03:41:53;;;;;;;3.47;3.17;;;11.60;99.90;;;12.47;100.00;97892.09;10365074;28;20777;-76
2023/07/22 03:46:56;;;;;;;3.90;3.60;;;11.70;99.90;;;12.51;100.00;97888.91;10355689;28;20230;-75
2023/07/22 03:51:59;;;;;;;3.40;3.10;;;11.70;99.90;;;12.57;100.00;97896.91;10357639;28;20695;-77
2023/07/22 03:57:05;;;;;;;5.55;3.53;;;11.80;99.90;;;12.61;100.00;97891.13;10357893;28;20233;-77
2023/07/22 04:02:08;;;;;;;3.85;3.45;;;11.70;99.90;;;12.55;100.00;97901.06;10345563;28;20226;-76
2023/07/22 04:07:11;;;;;;;3.85;3.40;;;11.80;99.90;;;12.65;100.00;97891.25;10350152;28;20226;-76
2023/07/22 04:12:15;;;;;;;3.60;3.30;;;11.80;99.90;;;12.66;100.00;97893.91;10345851;28;20337;-76
2023/07/22 04:17:18;;;;;;;3.13;2.92;;;11.80;99.90;;;12.63;100.00;97881.81;10338803;28;20249;-76
2023/07/22 04:22:22;;;;;;;3.90;3.60;;;11.80;99.90;;;12.74;100.00;97873.78;10335865;28;20288;-76
2023/07/22 04:27:27;;;;;;;3.55;3.35;;;12.00;99.90;;;12.89;100.00;97876.22;10350127;28;20225;-78
2023/07/22 04:32:30;;;;;;;3.90;3.45;;;12.00;99.90;;;12.93;99.08;97871.28;10338183;28;20964;-77
2023/07/22 04:37:33;;;;;;;3.55;3.22;;;12.00;99.90;;;13.15;97.96;97864.63;10344767;28;20231;-76
2023/07/22 04:42:38;;;;;;;3.42;3.13;;;12.10;99.90;;;13.19;97.29;97871.63;10340839;28;20222;-76
2023/07/22 04:47:44;;;;;;;3.20;3.00;;;12.10;99.90;;;13.21;97.03;97876.03;10349346;28;20231;-76
2023/07/22 04:52:48;;;;;;;3.33;3.13;;;12.20;99.90;;;13.26;96.71;97873.72;10346476;28;20354;-76
2023/07/22 04:57:54;;;;;;;3.30;3.00;;;12.20;99.90;;;13.39;96.62;97882.88;10348498;28;20257;-76
2023/07/22 05:02:57;;;;;;;5.32;3.97;;;12.30;99.90;;;13.36;97.01;97895.56;10347993;28;20325;-76
2023/07/22 05:08:01;;;;;;;3.90;3.55;;;12.40;99.90;;;13.40;96.89;97897.47;10353903;28;20257;-76
2023/07/22 05:13:06;;;;;;;3.83;3.53;;;12.40;99.90;;;13.82;94.10;97901.13;10353914;28;20230;-77
2023/07/22 05:18:09;;;;;;;4.05;3.75;;;12.80;99.90;;;14.19;93.95;97895.03;10337917;28;20222;-77
2023/07/22 05:23:13;;;;;;;3.63;3.22;;;13.20;99.90;;;14.94;91.17;97899.94;10339016;28;20236;-76
2023/07/22 05:28:17;;;;;;;3.97;3.45;;;13.70;99.90;;;15.75;87.76;97895.38;10342117;28;20233;-76
2023/07/22 05:33:20;;;;;;;3.67;3.35;;;14.90;99.90;;;16.94;81.62;97898.72;10355642;28;20226;-76
2023/07/22 05:38:24;;;;;;;3.33;3.03;;;15.70;99.90;;;17.71;76.60;97903.66;10339310;28;20236;-77
2023/07/22 05:43:28;;;;;;;3.85;3.00;;;16.30;99.90;;;18.37;73.55;97896.13;10337591;28;20226;-76
2023/07/22 05:48:31;;;;;;;3.40;3.03;;;16.70;99.90;;;19.04;70.67;97906.47;10337360;28;20588;-76
2023/07/22 05:53:35;;;;;;;3.13;2.90;;;17.10;99.90;;;19.44;69.06;97915.19;10344110;28;20341;-77
2023/07/22 05:58:39;;;;;;;3.33;3.03;;;17.50;99.90;;;19.82;67.69;97920.38;10344600;28;20241;-77
2023/07/22 06:03:43;;;;;;;3.05;2.85;;;17.80;99.90;;;20.15;67.59;97915.03;10341519;28;20230;-77
2023/07/22 06:08:46;;;;;;;4.22;3.92;;;18.10;99.90;;;20.21;65.48;97920.34;10346554;28;20234;-77
2023/07/22 06:13:51;;;;;;;3.55;3.30;;;18.00;99.90;;;20.72;64.38;97926.50;10349187;28;20738;-79
2023/07/22 06:18:54;;;;;;;3.70;3.38;;;18.30;99.90;;;21.13;62.78;97929.81;10344052;28;20610;-76
2023/07/22 06:23:57;;;;;;;4.32;3.92;;;18.50;99.90;;;21.50;60.94;97928.72;10352906;28;20644;-75
2023/07/22 06:29:02;;;;;;;5.57;5.07;;;18.80;99.90;;;21.54;59.18;97930.50;10339444;28;20234;-76
2023/07/22 06:34:05;;;;;;;4.15;3.75;;;18.90;99.90;;;22.12;61.05;97924.31;10353675;28;20227;-75
2023/07/22 06:39:08;;;;;;;4.75;3.58;;;19.60;99.90;;;22.32;61.12;97925.50;10336951;28;20359;-76
2023/07/22 06:44:13;;;;;;;3.58;3.28;;;19.90;99.90;;;23.15;57.03;97924.63;10347725;28;20717;-75
2023/07/22 06:49:16;;;;;;;3.67;3.30;;;20.50;99.90;;;23.64;56.77;97931.94;10348980;28;20228;-76
2023/07/22 06:54:19;;;;;;;3.08;2.78;;;21.10;99.90;;;23.91;54.77;97932.97;10350255;28;20860;-76
2023/07/22 06:59:24;;;;;;;3.33;3.03;;;21.50;99.90;;;24.60;53.04;97934.13;10350350;28;20233;-77
2023/07/22 07:04:27;;;;;;;3.38;3.17;;;22.00;99.90;;;25.04;51.00;97932.47;10340864;28;20281;-76
2023/07/22 07:09:31;;;;;;;3.40;3.10;;;22.40;99.90;;;25.53;49.42;97938.59;10362460;28;20228;-77
2023/07/22 07:14:36;;;;;;;3.25;2.50;;;23.00;99.90;;;25.69;48.87;97941.19;10354404;28;20222;-77
2023/07/22 07:19:39;;;;;;;2.97;2.78;;;23.40;99.30;;;25.96;45.83;97942.91;10359495;28;20231;-76
2023/07/22 07:24:42;;;;;;;2.92;2.72;;;23.60;97.20;;;26.24;45.00;97943.66;10363135;28;20218;-76
2023/07/22 07:29:47;;;;;;;3.08;2.75;;;23.70;96.60;;;26.07;45.08;97933.28;10355727;28;20651;-76
2023/07/22 07:34:56;;;;;;;3.25;2.75;;;23.80;95.70;;;26.16;44.16;97940.25;10361682;28;20709;-76
2023/07/22 07:39:59;;;;;;;3.03;2.53;;;23.70;94.90;;;26.13;44.95;97932.38;10362179;28;20240;-77
2023/07/22 07:45:05;;;;;;;2.83;2.60;;;24.00;94.50;;;26.66;44.49;97931.28;10363147;28;20649;-76
2023/07/22 07:50:10;;;;;;;3.35;2.67;;;24.50;94.10;;;27.17;42.40;97926.59;10351416;28;20222;-76
2023/07/22 07:55:13;;;;;;;2.83;2.38;;;24.40;93.10;;;27.64;41.73;97925.25;10360365;28;20288;-76
2023/07/22 08:00:20;;;;;;;2.67;2.38;;;24.80;92.90;;;28.15;39.74;97924.75;10360642;28;20230;-77
2023/07/22 08:05:23;;;;;;;2.47;2.22;;;25.40;90.70;;;28.48;38.79;97923.50;10348830;28;20242;-76
2023/07/22 08:10:26;;;;;;;2.65;2.20;;;25.60;90.10;;;28.90;38.41;97926.38;10352377;28;20226;-76
2023/07/22 08:15:30;;;;;;;2.60;2.00;;;25.70;90.10;;;29.05;36.65;97917.44;10362233;28;20261;-77
2023/07/22 08:20:34;;;;;;;3.33;2.22;;;26.30;87.30;;;28.81;38.82;97923.91;10357786;28;20749;-77
2023/07/22 08:25:37;;;;;;;2.63;2.35;;;26.40;86.80;;;28.33;38.94;97914.03;10362267;28;20236;-77
2023/07/22 08:30:42;;;;;;;3.03;2.35;;;26.30;86.80;;;28.48;38.22;97916.47;10358690;28;20965;-77
2023/07/22 08:35:47;;;;;;;2.47;2.28;;;26.60;84.20;;;28.32;38.56;97919.28;10353699;28;20384;-76
2023/07/22 08:40:51;;;;;;;2.00;1.80;;;26.60;84.10;;;27.80;38.50;97908.50;10362870;28;20835;-76
2023/07/22 08:46:01;;;;;;;3.05;2.30;;;26.30;82.60;;;27.92;37.39;97909.25;10363239;28;20238;-76
2023/07/22 08:51:11;;;;;;;1.95;1.80;;;26.60;79.70;;;27.81;36.87;97899.75;10353344;28;20279;-76
2023/07/22 08:56:15;;;;;;;3.08;2.00;;;27.00;76.90;;;28.07;34.48;97903.81;10359883;28;20230;-76
2023/07/22 09:01:19;;;;;;;3.00;1.75;;;27.30;73.00;;;28.13;35.20;97906.38;10352311;28;20313;-75
2023/07/22 09:06:23;;;;;;;1.98;1.83;;;27.50;72.40;;;28.05;34.23;97905.59;10354450;28;20237;-77
2023/07/22 09:11:27;;;;;;;2.53;2.00;;;27.20;72.00;;;28.25;34.50;97893.06;10361437;28;20272;-76
2023/07/22 09:16:32;;;;;;;3.83;2.25;;;27.30;71.00;;;28.52;34.87;97890.97;10364663;28;20252;-77
2023/07/22 09:21:36;;;;;;;2.20;2.10;;;27.50;71.80;;;28.58;33.81;97890.88;10358434;28;20617;-75
2023/07/22 09:26:44;;;;;;;3.05;2.13;;;27.80;69.60;;;28.56;33.03;97892.69;10355025;28;20325;-77
2023/07/22 09:31:53;;;;;;;2.17;1.90;;;27.90;68.40;;;28.63;33.67;97886.44;10349916;28;20230;-75
2023/07/22 09:37:00;;;;;;;2.50;1.90;;;27.90;68.80;;;28.48;31.94;97874.38;10351409;28;20317;-76
2023/07/22 09:42:05;;;;;;;2.45;2.08;;;27.70;66.50;;;28.78;33.51;97881.84;10349666;28;20237;-76
2023/07/22 09:47:10;;;;;;;3.28;1.98;;;28.00;70.10;;;28.98;31.67;97877.13;10356994;28;20231;-76
2023/07/22 09:52:14;;;;;;;3.38;2.00;;;28.20;64.90;;;28.37;32.64;97870.13;10349732;28;20247;-76
2023/07/22 09:57:18;;;;;;;2.42;2.20;;;27.20;66.50;;;28.26;32.44;97858.00;10352283;28;20222;-76
2023/07/22 10:02:23;;;;;;;2.50;2.08;;;27.50;66.30;;;28.52;31.98;97855.03;10356342;28;20245;-76
2023/07/22 10:07:28;;;;;;;3.25;2.08;;;27.70;65.00;;;28.41;30.31;97856.91;10354004;28;20233;-75
2023/07/22 10:12:31;;;;;;;2.13;2.03;;;27.60;63.30;;;27.91;30.93;97852.34;10351430;28;20288;-75
2023/07/22 10:17:37;;;;;;;3.13;2.42;;;26.80;63.30;;;27.64;31.98;97856.97;10351795;28;20230;-78
2023/07/22 10:22:41;;;;;;;2.55;2.30;;;26.60;65.50;;;27.23;32.93;97860.91;10352956;28;21651;-79
2023/07/22 10:27:45;;;;;;;2.47;2.13;;;26.00;67.60;;;26.97;34.12;97853.22;10366609;28;20674;-79
2023/07/22 10:32:52;;;;;;;2.40;2.20;;;25.60;69.10;;;26.82;34.56;97856.00;10363692;28;20218;-77
2023/07/22 10:37:56;;;;;;;3.22;2.30;;;25.40;70.10;;;26.50;35.03;97859.72;10361536;28;20317;-75
2023/07/22 10:43:04;;;;;;;2.40;2.20;;;25.20;69.90;;;26.49;35.83;97843.06;10366380;28;20222;-77
2023/07/22 10:48:11;;;;;;;4.40;2.45;;;25.20;71.70;;;26.38;37.46;97847.50;10364348;28;20262;-79
2023/07/22 10:53:31;;;;;;;2.67;2.30;;;25.30;74.70;;;26.23;38.19;97842.34;10361505;28;20616;-77
2023/07/22 10:58:56;;;;;;;2.42;2.22;;;25.30;75.10;;;26.11;37.39;97845.91;10363706;28;20702;-80
2023/07/22 11:04:30;;;;;;;2.38;2.17;;;25.00;73.10;;;26.17;37.63;97839.78;10364009;28;20264;-77
2023/07/22 11:09:43;;;;;;;2.40;2.10;;;25.10;73.80;;;26.68;35.37;97835.09;10367264;28;20600;-76
2023/07/22 11:14:49;;;;;;;2.35;2.15;;;26.00;70.00;;;26.89;35.46;97820.94;10367340;28;20225;-78
2023/07/22 11:19:54;;;;;;;2.13;2.03;;;26.00;70.20;;;26.99;35.82;97814.75;10366712;28;20327;-76
2023/07/22 11:24:58;;;;;;;2.70;2.22;;;26.00;71.10;;;26.96;35.37;97813.00;10366600;28;20301;-77
2023/07/22 11:30:04;;;;;;;2.70;2.38;;;25.80;70.80;;;26.80;35.47;97808.78;10361006;28;20225;-79
2023/07/22 11:35:10;;;;;;;2.42;2.22;;;25.40;71.00;;;26.83;35.47;97803.50;10362721;28;20233;-78
2023/07/22 11:40:13;;;;;;;2.25;2.05;;;25.70;70.40;;;26.76;34.82;97807.06;10369035;28;20729;-78
2023/07/22 11:45:17;;;;;;;3.03;2.20;;;25.60;69.60;;;26.40;35.48;97792.44;10372647;28;20237;-77
2023/07/22 11:50:32;;;;;;;2.72;2.20;;;25.30;70.10;;;26.64;36.41;97787.06;10355153;28;21357;-78
2023/07/22 11:55:37;;;;;;;2.63;2.42;;;25.60;71.90;;;26.20;36.25;97784.72;10353738;28;20710;-77
2023/07/22 12:00:44;;;;;;;2.83;2.20;;;25.20;71.30;;;26.42;34.89;97780.22;10366418;28;20744;-78
2023/07/22 12:06:09;;;;;;;1.90;1.70;;;25.40;69.30;;;26.85;34.73;97761.53;10366063;28;20261;-78
2023/07/22 12:11:19;;;;;;;2.33;2.10;;;25.90;68.50;;;27.33;32.82;97752.31;10364481;28;20226;-77
2023/07/22 12:16:24;;;;;;;2.03;1.90;;;26.30;66.40;;;27.07;33.74;97752.56;10363364;28;20294;-78
2023/07/22 12:21:29;;;;;;;2.13;2.03;;;26.20;66.60;;;26.83;35.25;97745.78;10369935;28;20630;-79
2023/07/22 12:26:32;;;;;;;2.20;2.00;;;26.00;69.00;;;26.53;35.07;97746.94;10354206;28;20229;-79
2023/07/22 12:31:35;;;;;;;2.17;2.00;;;25.70;68.80;;;26.92;34.54;97727.31;10352603;28;20289;-76
2023/07/22 12:36:41;;;;;;;2.42;2.22;;;26.00;68.30;;;26.78;34.77;97736.22;10362522;28;20614;-78
2023/07/22 12:41:44;;;;;;;2.45;2.13;;;25.90;68.20;;;26.70;34.26;97733.69;10359333;28;20754;-76
2023/07/22 12:46:47;;;;;;;1.80;1.70;;;26.00;66.80;;;26.84;34.09;97731.81;10350502;28;20632;-77
2023/07/22 12:51:52;;;;;;;2.40;2.20;;;25.90;67.30;;;26.63;35.12;97738.09;10343524;28;20607;-77
2023/07/22 12:56:55;;;;;;;1.70;1.60;;;25.70;68.60;;;26.93;33.42;97728.22;10352810;28;20226;-81
2023/07/22 13:01:58;;;;;;;2.10;2.00;;;25.90;66.60;;;26.88;33.85;97717.75;10352321;28;20234;-78
2023/07/22 13:07:03;;;;;;;2.58;2.35;;;26.00;66.80;;;26.90;33.94;97715.13;10369831;28;20214;-80
2023/07/22 13:12:07;;;;;;;2.40;2.20;;;26.10;67.00;;;26.59;34.27;97711.94;10365798;28;20281;-79
2023/07/22 13:17:11;;;;;;;2.65;2.13;;;25.80;66.30;;;26.75;34.24;97705.63;10351830;28;20313;-79
2023/07/22 13:22:15;;;;;;;2.50;2.30;;;25.90;66.80;;;26.99;34.15;97715.03;10358032;28;20226;-79
2023/07/22 13:27:19;;;;;;;2.08;1.88;;;26.00;67.20;;;27.24;33.21;97699.88;10367792;28;21017;-81
2023/07/22 13:32:23;;;;;;;2.60;2.40;;;26.30;65.80;;;27.32;33.27;97691.94;10361662;28;20238;-81
2023/07/22 13:37:27;;;;;;;2.05;1.95;;;26.50;65.20;;;27.73;31.61;97675.63;10356899;28;20307;-79
2023/07/22 13:42:30;;;;;;;2.95;2.67;;;26.80;63.50;;;27.83;32.67;97687.75;10347319;28;20672;-76
2023/07/22 13:47:33;;;;;;;3.00;2.20;;;27.00;64.60;;;27.70;32.40;97685.28;10355557;28;20226;-79
2023/07/22 13:52:40;;;;;;;3.55;2.33;;;26.80;64.10;;;27.54;33.50;97676.78;10356298;28;20271;-76
2023/07/22 13:57:43;;;;;;;3.47;2.47;;;26.70;66.00;;;27.58;33.31;97674.06;10347252;28;20282;-77
2023/07/22 14:02:46;;;;;;;2.70;2.50;;;26.70;65.90;;;27.79;32.13;97672.94;10352499;28;20230;-77
2023/07/22 14:07:51;;;;;;;2.47;2.28;;;26.90;63.00;;;27.88;33.23;97665.81;10361101;28;20230;-77
2023/07/22 14:12:54;;;;;;;3.50;2.38;;;27.10;65.10;;;27.97;32.42;97657.78;10350493;28;20231;-77
2023/07/22 14:17:57;;;;;;;2.67;2.28;;;27.10;63.60;;;27.88;32.33;97663.19;10360126;28;20230;-77
2023/07/22 14:23:03;;;;;;;2.97;2.25;;;27.10;63.70;;;27.77;32.72;97663.31;10353307;28;20229;-77
2023/07/22 14:28:06;;;;;;;3.15;2.58;;;27.00;64.60;;;27.42;32.41;97650.69;10347039;28;20995;-75
2023/07/22 14:33:09;;;;;;;3.03;2.70;;;26.60;63.60;;;27.60;32.25;97645.16;10352645;28;20614;-76
2023/07/22 14:38:15;;;;;;;2.08;1.98;;;26.90;63.20;;;27.68;31.61;97637.19;10352857;28;20222;-76
2023/07/22 14:43:18;;;;;;;2.60;2.40;;;26.90;62.20;;;27.65;31.82;97656.50;10353767;28;20284;-77
2023/07/22 14:48:25;;;;;;;2.90;2.67;;;26.90;61.80;;;27.92;32.02;97651.72;10357154;28;20234;-76
2023/07/22 14:53:29;;;;;;;2.95;2.75;;;27.00;62.80;;;28.06;31.82;97655.88;10354252;28;20285;-77
2023/07/22 14:58:32;;;;;;;2.63;2.35;;;27.20;63.30;;;28.01;32.86;97657.69;10356316;28;20353;-77
2023/07/22 15:03:36;;;;;;;2.55;2.35;;;27.20;63.70;;;28.14;31.97;97658.38;10362764;28;20230;-77
2023/07/22 15:08:40;;;;;;;2.65;2.45;;;27.30;63.60;;;27.87;31.62;97653.56;10362193;28;20279;-76
2023/07/22 15:13:43;;;;;;;3.38;2.67;;;27.00;62.70;;;27.88;31.83;97644.81;10362424;28;20251;-78
2023/07/22 15:18:46;;;;;;;4.03;2.60;;;27.00;62.60;;;28.10;31.36;97651.47;10359814;28;20220;-77
2023/07/22 15:23:51;;;;;;;3.65;3.35;;;27.20;61.60;;;27.96;31.47;97648.19;10362677;28;20727;-77
2023/07/22 15:28:54;;;;;;;4.13;3.78;;;27.00;61.80;;;27.91;30.52;97642.13;10363038;28;20226;-77
2023/07/22 15:33:57;;;;;;;4.00;3.60;;;26.80;61.10;;;27.80;30.84;97645.78;10360456;28;20702;-77
2023/07/22 15:39:03;;;;;;;3.42;3.13;;;26.90;60.80;;;27.76;31.73;97649.31;10360985;28;20308;-77
2023/07/22 15:44:06;;;;;;;3.47;3.15;;;26.80;62.90;;;27.78;30.82;97655.41;10356698;28;20238;-77
2023/07/22 15:49:09;;;;;;;3.63;3.33;;;26.80;60.90;;;27.60;31.21;97647.78;10359447;28;20226;-77
2023/07/22 15:54:15;;;;;;;4.22;3.70;;;26.60;61.80;;;27.53;31.89;97651.41;10357312;28;20238;-78
2023/07/22 15:59:18;;;;;;;3.65;3.35;;;26.60;62.00;;;27.77;31.66;97647.56;10355376;28;20218;-76
2023/07/22 16:04:21;;;;;;;3.40;3.10;;;26.70;62.60;;;27.81;32.34;97658.03;10359170;28;20226;-77
2023/07/22 16:09:26;;;;;;;5.40;4.13;;;26.80;62.80;;;27.59;32.67;97643.44;10354212;28;20711;-78
2023/07/22 16:14:29;;;;;;;3.72;3.42;;;26.60;63.80;;;27.65;31.34;97653.00;10354798;28;20317;-78
2023/07/22 16:19:32;;;;;;;3.47;3.17;;;26.70;61.90;;;27.60;31.87;97650.44;10356949;28;20225;-77
2023/07/22 16:24:37;;;;;;;3.70;3.30;;;26.60;62.60;;;27.56;32.15;97654.00;10357133;28;20226;-78
2023/07/22 16:29:41;;;;;;;4.03;3.45;;;26.50;63.10;;;27.39;32.73;97655.09;10361784;28;20719;-78
2023/07/22 16:34:44;;;;;;;4.03;3.33;;;26.40;63.80;;;27.39;33.14;97652.47;10352123;28;20229;-77
2023/07/22 16:39:48;;;;;;;3.85;3.55;;;26.30;64.40;;;27.40;31.94;97654.19;10361888;28;20217;-77
2023/07/22 16:44:51;;;;;;;3.90;3.50;;;26.30;62.50;;;27.14;32.88;97659.75;10361541;28;20230;-78
2023/07/22 16:49:55;;;;;;;3.53;3.20;;;26.20;63.90;;;27.24;32.79;97659.66;10353505;28;20862;-79
2023/07/22 16:54:59;;;;;;;3.78;3.30;;;26.20;63.70;;;26.90;33.20;97653.03;10363023;28;20232;-78
2023/07/22 17:00:02;;;;;;;3.30;3.10;;;26.00;64.00;;;26.86;33.32;97660.94;10350248;28;20229;-77
2023/07/22 17:05:06;;;;;;;3.22;2.78;;;25.90;64.40;;;26.54;34.47;97658.66;10345987;28;20253;-77
2023/07/22 17:10:10;;;;;;;4.07;2.90;;;25.60;65.80;;;26.19;35.26;97662.44;10358584;28;20235;-79
2023/07/22 17:15:15;;;;;;;3.42;3.13;;;25.20;67.20;;;26.03;36.41;97666.94;10368809;28;20698;-79
2023/07/22 17:20:20;;;;;;;3.28;2.97;;;25.10;69.80;;;25.91;35.77;97662.66;10357783;28;20233;-78
2023/07/22 17:25:25;;;;;;;4.53;2.90;;;24.90;68.10;;;26.08;35.74;97664.28;10361907;28;20316;-78
2023/07/22 17:30:28;;;;;;;3.22;2.97;;;25.10;67.80;;;25.73;36.56;97662.75;10357011;28;20312;-78
2023/07/22 17:35:31;;;;;;;3.75;3.42;;;24.90;69.30;;;25.61;36.87;97659.34;10356140;28;20240;-79
2023/07/22 17:40:41;;;;;;;3.13;2.88;;;24.70;69.60;;;25.62;37.62;97650.59;10355540;28;20245;-78
2023/07/22 17:45:45;;;;;;;3.58;3.10;;;24.60;70.60;;;25.40;37.66;97646.34;10341369;28;20248;-76
2023/07/22 17:50:48;;;;;;;2.67;2.47;;;24.40;71.20;;;25.23;38.17;97648.19;10339238;28;20226;-76
2023/07/22 17:55:53;;;;;;;3.63;2.95;;;24.20;71.10;;;25.08;38.36;97652.56;10348187;28;20230;-77
2023/07/22 18:00:56;;;;;;;5.07;2.85;;;24.10;71.20;;;24.95;38.55;97641.31;10349559;28;20230;-77
2023/07/22 18:05:59;;;;;;;3.40;3.10;;;24.00;71.80;;;24.88;39.22;97650.03;10347012;28;20230;-76
2023/07/22 18:11:04;;;;;;;3.30;2.70;;;23.90;72.80;;;24.77;39.69;97656.16;10341291;28;20602;-75
2023/07/22 18:16:07;;;;;;;3.17;2.88;;;23.80;74.20;;;24.61;40.43;97656.22;10345683;28;20238;-75
2023/07/22 18:21:10;;;;;;;4.38;3.20;;;23.60;74.60;;;24.43;40.99;97649.25;10341797;28;20936;-76
2023/07/22 18:26:16;;;;;;;3.38;2.70;;;23.40;75.40;;;24.29;41.39;97656.19;10344065;28;20238;-76
2023/07/22 18:31:20;;;;;;;2.78;2.58;;;23.30;77.70;;;24.13;41.83;97657.97;10341516;28;20361;-76
2023/07/22 18:36:24;;;;;;;3.30;3.00;;;23.10;77.80;;;23.95;42.73;97663.16;10346880;28;20311;-76
2023/07/22 18:41:28;;;;;;;3.88;3.00;;;22.90;78.10;;;23.74;42.84;97670.09;10349140;28;20226;-76
2023/07/22 18:46:32;;;;;;;3.42;3.05;;;22.70;78.60;;;23.55;44.23;97663.06;10346669;28;20230;-77
2023/07/22 18:51:35;;;;;;;3.22;2.78;;;22.50;81.90;;;23.34;44.69;97669.97;10355823;28;20251;-76
2023/07/22 18:56:39;;;;;;;3.05;2.75;;;22.30;83.50;;;23.16;45.40;97669.91;10356351;28;20222;-76
2023/07/22 19:01:44;;;;;;;3.88;3.47;;;22.10;83.00;;;22.98;46.77;97672.41;10352870;28;20230;-77
2023/07/22 19:06:47;;;;;;;3.78;3.47;;;22.00;86.80;;;22.78;48.08;97677.47;10353667;28;20269;-75
2023/07/22 19:11:51;;;;;;;3.50;3.20;;;21.70;88.30;;;22.56;48.17;97681.72;10350099;28;20242;-76
2023/07/22 19:16:56;;;;;;;3.20;3.00;;;21.50;88.50;;;22.37;49.05;97681.56;10353989;28;20222;-76
2023/07/22 19:21:59;;;;;;;3.67;3.28;;;21.30;90.00;;;22.13;49.55;97691.78;10350881;28;20339;-75
2023/07/22 19:27:04;;;;;;;4.07;3.28;;;21.10;90.60;;;22.01;50.09;97690.81;10347589;28;20276;-75
2023/07/22 19:32:08;;;;;;;2.88;2.67;;;20.90;91.00;;;21.80;50.24;97698.38;10354635;28;20719;-75
2023/07/22 19:37:11;;;;;;;2.97;2.78;;;20.70;91.20;;;21.63;50.66;97699.94;10355568;28;20319;-76
2023/07/22 19:42:15;;;;;;;4.00;3.60;;;20.50;91.80;;;21.43;51.91;97702.31;10351641;28;20226;-75
2023/07/22 19:47:19;;;;;;;3.33;3.03;;;20.20;92.70;;;21.14;52.28;97708.88;10351912;28;20396;-76
2023/07/22 19:52:25;;;;;;;3.42;3.13;;;20.10;92.90;;;21.08;53.89;97710.53;10347826;28;20744;-74
2023/07/22 19:57:29;;;;;;;4.47;3.50;;;20.00;93.90;;;20.92;54.16;97709.47;10351270;28;20233;-75
2023/07/22 20:02:33;;;;;;;3.15;2.85;;;19.80;94.40;;;20.70;54.24;97718.69;10352016;28;20222;-76
2023/07/22 20:07:36;;;;;;;3.92;3.30;;;19.60;94.60;;;20.50;54.98;97717.47;10362105;28;20654;-75
2023/07/22 20:12:40;;;;;;;3.72;3.42;;;19.50;95.10;;;20.28;55.56;97718.84;10355501;28;20230;-75
2023/07/22 20:17:43;;;;;;;3.72;3.42;;;19.20;95.70;;;20.16;56.68;97720.38;10357992;28;20233;-76
2023/07/22 20:22:47;;;;;;;4.50;3.17;;;19.10;96.50;;;20.08;56.44;97727.16;10357093;28;20615;-75
2023/07/22 20:27:53;;;;;;;3.42;3.13;;;19.00;96.60;;;19.98;57.03;97736.50;10354148;28;20707;-75
2023/07/22 20:32:56;;;;;;;4.10;3.70;;;18.90;96.90;;;19.89;56.96;97738.09;10356407;28;20229;-75
2023/07/22 20:37:59;;;;;;;3.55;3.25;;;18.80;97.00;;;19.64;58.19;97734.97;10355315;28;20762;-75
2023/07/22 20:43:03;;;;;;;4.45;3.33;;;18.60;98.10;;;19.46;59.35;97729.41;10346042;28;20241;-76
2023/07/22 20:48:07;;;;;;;3.70;3.25;;;18.40;98.60;;;19.23;61.15;97732.44;10357863;28;20243;-77
2023/07/22 20:53:10;;;;;;;4.05;3.65;;;18.20;99.90;;;19.24;60.88;97734.19;10352941;28;20230;-76
2023/07/22 20:58:14;;;;;;;3.58;3.33;;;18.20;99.90;;;19.08;61.41;97726.91;10356990;28;20719;-75
2023/07/22 21:03:17;;;;;;;3.92;3.60;;;18.10;99.90;;;18.99;60.65;97731.91;10359669;28;20227;-74